createdAt,value
2022-11-05T00:00:37.584Z,86.23
2022-11-05T00:03:23.645Z,86.47
2022-11-05T00:06:12.503Z,85.75
2022-11-05T00:08:59.956Z,85.70
2022-11-05T00:11:46.962Z,85.25
2022-11-05T00:14:33.111Z,85.21
2022-11-05T00:17:00.140Z,84.86
2022-11-05T00:19:27.242Z,85.13
2022-11-05T00:22:12.534Z,84.96
2022-11-05T00:25:09.126Z,84.96
2022-11-05T00:27:36.211Z,84.85
2022-11-05T00:30:06.247Z,84.28
2022-11-05T00:32:33.986Z,84.50
2022-11-05T00:35:01.069Z,84.79
2022-11-05T00:37:28.749Z,84.89
2022-11-05T00:39:55.756Z,84.55
2022-11-05T00:42:41.202Z,83.66
2022-11-05T00:45:08.866Z,84.58
2022-11-05T00:47:54.087Z,84.95
2022-11-05T00:50:22.436Z,85.21
2022-11-05T00:52:57.421Z,84.22
2022-11-05T00:55:34.649Z,84.67
2022-11-05T00:58:03.474Z,84.64
2022-11-05T01:00:31.649Z,85.45
2022-11-05T01:03:04.470Z,85.78
2022-11-05T01:05:33.110Z,86.07
2022-11-05T01:08:00.497Z,85.95
2022-11-05T01:10:28.258Z,86.11
2022-11-05T01:12:55.752Z,85.03
2022-11-05T01:15:23.158Z,85.05
2022-11-05T01:17:51.595Z,85.99
2022-11-05T01:20:18.753Z,85.75
2022-11-05T01:22:45.700Z,86.09
2022-11-05T01:25:12.729Z,85.52
2022-11-05T01:27:40.034Z,85.91
2022-11-05T01:30:09.059Z,84.55
2022-11-05T01:32:37.271Z,85.60
2022-11-05T01:35:09.276Z,86.19
2022-11-05T01:37:36.616Z,85.74
2022-11-05T01:40:04.108Z,86.07
2022-11-05T01:42:32.408Z,85.29
2022-11-05T01:45:21.403Z,86.04
2022-11-05T01:48:17.142Z,85.92
2022-11-05T01:50:58.402Z,85.66
2022-11-05T01:53:53.721Z,85.48
2022-11-05T01:56:26.834Z,85.30
2022-11-05T01:59:02.749Z,85.42
2022-11-05T02:01:30.040Z,86.64
2022-11-05T02:04:01.896Z,86.27
2022-11-05T02:06:30.392Z,86.69
2022-11-05T02:09:03.703Z,87.52
2022-11-05T02:11:30.992Z,87.26
2022-11-05T02:13:58.138Z,87.13
2022-11-05T02:16:47.907Z,87.27
2022-11-05T02:19:44.804Z,87.08
2022-11-05T02:22:57.142Z,86.65
2022-11-05T02:26:31.496Z,87.82
2022-11-05T02:29:39.012Z,87.05
2022-11-05T02:33:01.329Z,87.21
2022-11-05T02:36:11.050Z,87.48
2022-11-05T02:39:07.229Z,88.34
2022-11-05T02:41:47.084Z,88.07
2022-11-05T02:44:57.752Z,88.04
2022-11-05T02:50:35.383Z,88.64
2022-11-05T02:58:52.745Z,89.51
2022-11-05T03:01:20.487Z,89.44
2022-11-05T03:03:57.834Z,89.10
2022-11-05T03:10:05.633Z,88.28
2022-11-05T03:13:11.998Z,88.22
2022-11-05T03:15:57.061Z,88.22
2022-11-05T03:18:47.792Z,88.30
2022-11-05T03:21:24.162Z,88.71
2022-11-05T03:24:08.664Z,88.85
2022-11-05T03:26:54.934Z,88.72
2022-11-05T03:29:27.256Z,89.04
2022-11-05T03:31:57.852Z,89.06
2022-11-05T03:34:29.600Z,89.80
2022-11-05T03:36:58.250Z,89.64
2022-11-05T03:39:39.515Z,89.47
2022-11-05T03:42:07.858Z,89.43
2022-11-05T03:44:39.253Z,88.79
2022-11-05T03:47:14.277Z,87.76
2022-11-05T03:49:53.020Z,88.10
2022-11-05T03:52:24.179Z,88.78
2022-11-05T03:54:51.260Z,88.85
2022-11-05T03:57:32.765Z,89.21
2022-11-05T03:59:59.821Z,90.23
2022-11-05T04:02:27.685Z,90.24
2022-11-05T04:04:55.481Z,90.51
2022-11-05T04:07:41.259Z,91.07
2022-11-05T04:10:27.951Z,91.26
2022-11-05T04:13:13.768Z,91.54
2022-11-05T04:15:59.385Z,91.36
2022-11-05T04:18:26.717Z,90.94
2022-11-05T04:21:12.222Z,91.53
2022-11-05T04:23:57.650Z,91.37
2022-11-05T04:26:24.671Z,91.12
2022-11-05T04:29:10.751Z,89.63
2022-11-05T04:31:38.498Z,90.57
2022-11-05T04:34:05.638Z,91.53
2022-11-05T04:36:32.641Z,92.21
2022-11-05T04:38:59.590Z,93.28
2022-11-05T04:41:26.848Z,93.43
2022-11-05T04:43:53.906Z,93.85
2022-11-05T04:46:21.079Z,93.60
2022-11-05T04:48:48.093Z,93.23
2022-11-05T04:51:15.185Z,93.76
2022-11-05T04:53:42.296Z,93.92
2022-11-05T04:56:19.705Z,94.21
2022-11-05T04:58:46.888Z,93.61
2022-11-05T05:01:18.989Z,93.65
2022-11-05T05:03:50.464Z,93.31
2022-11-05T05:06:18.879Z,92.66
2022-11-05T05:08:50.444Z,92.05
2022-11-05T05:11:20.116Z,91.93
2022-11-05T05:13:47.861Z,91.78
2022-11-05T05:16:26.249Z,91.29
2022-11-05T05:18:54.895Z,91.45
2022-11-05T05:21:41.730Z,91.40
2022-11-05T05:24:13.776Z,90.94
2022-11-05T05:26:43.588Z,91.06
2022-11-05T05:29:12.160Z,91.06
2022-11-05T05:31:39.750Z,90.48
2022-11-05T05:34:07.897Z,90.22
2022-11-05T05:36:34.936Z,90.87
2022-11-05T05:39:04.766Z,91.49
2022-11-05T05:41:31.865Z,91.52
2022-11-05T05:43:58.924Z,91.90
2022-11-05T05:46:25.940Z,92.15
2022-11-05T05:48:52.961Z,91.25
2022-11-05T05:51:20.348Z,91.21
2022-11-05T05:53:47.468Z,91.02
2022-11-05T05:56:15.473Z,90.85
2022-11-05T05:58:42.710Z,90.10
2022-11-05T06:01:18.971Z,90.12
2022-11-05T06:03:47.704Z,90.05
2022-11-05T06:06:19.925Z,89.78
2022-11-05T06:08:47.653Z,89.68
2022-11-05T06:11:14.906Z,90.13
2022-11-05T06:13:41.894Z,91.22
2022-11-05T06:16:09.866Z,91.80
2022-11-05T06:18:37.291Z,92.02
2022-11-05T06:21:06.234Z,91.69
2022-11-05T06:23:34.868Z,91.39
2022-11-05T06:26:07.715Z,91.63
2022-11-05T06:28:35.640Z,92.36
2022-11-05T06:31:02.665Z,92.58
2022-11-05T06:33:29.686Z,92.86
2022-11-05T06:36:00.667Z,92.88
2022-11-05T06:38:29.426Z,92.19
2022-11-05T06:40:58.953Z,91.33
2022-11-05T06:43:26.809Z,90.14
2022-11-05T06:45:54.001Z,90.09
2022-11-05T06:48:21.009Z,89.86
2022-11-05T06:50:48.115Z,89.55
2022-11-05T06:53:15.269Z,87.84
2022-11-05T06:55:42.374Z,87.12
2022-11-05T06:58:09.301Z,86.48
2022-11-05T07:00:36.598Z,85.64
2022-11-05T07:03:08.360Z,84.69
2022-11-05T07:05:39.192Z,83.62
2022-11-05T07:08:06.706Z,82.67
2022-11-05T07:10:34.030Z,82.50
2022-11-05T07:13:05.131Z,81.63
2022-11-05T07:15:35.028Z,80.38
2022-11-05T07:18:02.451Z,79.72
2022-11-05T07:20:33.901Z,79.23
2022-11-05T07:23:06.740Z,78.18
2022-11-05T07:25:34.705Z,77.37
2022-11-05T07:28:03.325Z,76.47
2022-11-05T07:30:31.875Z,75.66
2022-11-05T07:32:59.122Z,75.10
2022-11-05T07:35:26.195Z,75.07
2022-11-05T07:37:54.791Z,75.43
2022-11-05T07:40:23.613Z,75.38
2022-11-05T07:42:56.017Z,75.01
2022-11-05T07:45:23.708Z,73.07
2022-11-05T07:47:53.232Z,72.81
2022-11-05T07:50:22.814Z,71.81
2022-11-05T07:52:50.555Z,71.18
2022-11-05T07:55:19.360Z,71.02
2022-11-05T07:57:51.144Z,68.60
2022-11-05T08:00:21.844Z,68.14
2022-11-05T08:03:09.326Z,68.55
2022-11-05T08:05:38.847Z,65.22
2022-11-05T08:08:08.366Z,65.06
2022-11-05T08:10:36.246Z,63.57
2022-11-05T08:13:04.200Z,63.26
2022-11-05T08:15:31.192Z,62.27
2022-11-05T08:18:04.147Z,62.12
2022-11-05T08:20:31.539Z,61.77
2022-11-05T08:22:58.677Z,60.91
2022-11-05T08:25:26.196Z,59.69
2022-11-05T08:28:01.453Z,59.02
2022-11-05T08:30:28.934Z,59.85
2022-11-05T08:33:01.095Z,58.55
2022-11-05T08:35:29.164Z,57.88
2022-11-05T08:38:00.895Z,56.99
2022-11-05T08:40:28.126Z,58.16
2022-11-05T08:42:58.381Z,57.99
2022-11-05T08:45:28.523Z,57.70
2022-11-05T08:48:10.500Z,58.61
2022-11-05T08:50:37.981Z,59.45
2022-11-05T08:53:06.248Z,58.75
2022-11-05T08:55:33.450Z,58.28
2022-11-05T08:58:02.806Z,57.88
2022-11-05T09:00:32.075Z,58.09
2022-11-05T09:03:01.257Z,57.10
2022-11-05T09:05:29.464Z,56.83
2022-11-05T09:08:00.885Z,56.67
2022-11-05T09:10:28.870Z,56.36
2022-11-05T09:12:56.064Z,56.01
2022-11-05T09:15:23.674Z,55.25
2022-11-05T09:17:51.165Z,54.96
2022-11-05T09:20:18.112Z,54.71
2022-11-05T09:22:46.455Z,54.36
2022-11-05T09:25:15.471Z,53.27
2022-11-05T09:27:43.268Z,52.93
2022-11-05T09:30:11.809Z,53.21
2022-11-05T09:32:39.002Z,53.07
2022-11-05T09:35:06.349Z,53.26
2022-11-05T09:37:33.450Z,52.71
2022-11-05T09:40:00.572Z,52.72
2022-11-05T09:42:38.103Z,52.95
2022-11-05T09:45:27.532Z,52.98
2022-11-05T09:48:03.456Z,53.69
2022-11-05T09:50:38.339Z,53.53
2022-11-05T09:53:05.570Z,52.91
2022-11-05T09:55:43.934Z,52.41
2022-11-05T09:58:18.994Z,53.04
2022-11-05T10:00:49.032Z,52.59
2022-11-05T10:03:20.580Z,52.42
2022-11-05T10:05:50.170Z,52.06
2022-11-05T10:08:27.406Z,51.32
2022-11-05T10:10:56.345Z,50.93
2022-11-05T10:13:46.272Z,50.48
2022-11-05T10:16:31.207Z,50.01
2022-11-05T10:19:25.807Z,48.40
2022-11-05T10:22:09.966Z,48.19
2022-11-05T10:24:38.201Z,49.42
2022-11-05T10:27:05.980Z,49.50
2022-11-05T10:29:35.287Z,49.24
2022-11-05T10:32:05.938Z,49.18
2022-11-05T10:34:37.108Z,48.64
2022-11-05T10:37:04.586Z,48.47
2022-11-05T10:39:34.028Z,48.77
2022-11-05T10:42:40.213Z,48.14
2022-11-05T10:45:34.040Z,48.15
2022-11-05T10:48:43.888Z,47.98
2022-11-05T10:51:12.099Z,47.48
2022-11-05T10:53:40.090Z,47.02
2022-11-05T10:56:28.633Z,47.16
2022-11-05T10:58:58.348Z,47.04
2022-11-05T11:01:26.568Z,46.35
2022-11-05T11:04:17.439Z,46.02
2022-11-05T11:06:49.860Z,46.46
2022-11-05T11:09:22.738Z,46.18
2022-11-05T11:12:06.614Z,45.25
2022-11-05T11:14:35.346Z,44.61
2022-11-05T11:17:38.319Z,44.01
2022-11-05T11:20:31.776Z,43.91
2022-11-05T11:23:14.375Z,43.14
2022-11-05T11:26:08.504Z,42.87
2022-11-05T11:28:39.908Z,42.95
2022-11-05T11:31:14.293Z,43.17
2022-11-05T11:33:44.890Z,42.84
2022-11-05T11:36:13.288Z,42.48
2022-11-05T11:38:41.006Z,42.23
2022-11-05T11:41:31.537Z,41.79
2022-11-05T11:44:16.479Z,41.93
2022-11-05T11:46:48.700Z,41.37
2022-11-05T11:50:00.221Z,42.23
2022-11-05T11:52:36.457Z,41.81
2022-11-05T11:55:32.455Z,41.72
2022-11-05T11:58:07.760Z,41.99
2022-11-05T12:00:42.782Z,41.84
2022-11-05T12:03:32.067Z,41.51
2022-11-05T12:06:15.844Z,41.67
2022-11-05T12:09:06.715Z,41.56
2022-11-05T12:11:46.465Z,41.64
2022-11-05T12:14:52.724Z,41.68
2022-11-05T12:18:15.004Z,41.27
2022-11-05T12:21:07.237Z,41.12
2022-11-05T12:24:08.567Z,41.39
2022-11-05T12:27:05.704Z,41.15
2022-11-05T12:30:03.290Z,40.82
2022-11-05T12:32:44.344Z,40.30
2022-11-05T12:35:57.553Z,39.91
2022-11-05T12:39:03.340Z,40.41
2022-11-05T12:41:40.191Z,40.54
2022-11-05T12:47:57.615Z,40.44
2022-11-05T12:50:47.334Z,40.15
2022-11-05T12:53:42.645Z,40.68
2022-11-05T12:59:24.875Z,40.85
2022-11-05T13:02:00.632Z,40.72
2022-11-05T13:04:51.605Z,41.04
2022-11-05T13:07:24.114Z,41.32
2022-11-05T13:10:07.738Z,42.00
2022-11-05T13:12:39.355Z,42.11
2022-11-05T13:15:34.046Z,42.19
2022-11-05T13:18:11.705Z,42.56
2022-11-05T13:20:42.457Z,42.04
2022-11-05T13:23:31.456Z,41.64
2022-11-05T13:26:05.869Z,42.22
2022-11-05T13:29:14.682Z,42.63
2022-11-05T13:31:47.490Z,42.52
2022-11-05T13:34:14.524Z,42.58
2022-11-05T13:37:16.927Z,42.56
2022-11-05T13:39:57.406Z,42.53
2022-11-05T13:43:07.732Z,42.82
2022-11-05T13:46:30.144Z,42.86
2022-11-05T13:49:52.070Z,42.88
2022-11-05T13:53:15.080Z,43.00
2022-11-05T13:56:24.786Z,43.07
2022-11-05T14:02:26.660Z,42.63
2022-11-05T14:05:00.950Z,42.68
2022-11-05T14:07:32.076Z,42.56
2022-11-05T14:10:14.897Z,42.47
2022-11-05T14:12:48.336Z,42.43
2022-11-05T14:15:23.277Z,42.00
2022-11-05T14:18:18.651Z,42.22
2022-11-05T14:21:00.376Z,42.13
2022-11-05T14:23:37.572Z,42.65
2022-11-05T14:26:31.783Z,43.04
2022-11-05T14:29:25.016Z,42.04
2022-11-05T14:32:13.335Z,42.11
2022-11-05T14:35:35.995Z,41.98
2022-11-05T14:38:05.188Z,42.14
2022-11-05T14:40:42.421Z,42.32
2022-11-05T14:43:22.861Z,42.68
2022-11-05T14:46:00.998Z,43.49
2022-11-05T14:48:38.303Z,43.91
2022-11-05T14:51:44.274Z,44.37
2022-11-05T14:54:42.918Z,45.30
2022-11-05T14:57:14.676Z,45.57
2022-11-05T15:00:01.319Z,45.94
2022-11-05T15:02:35.473Z,46.13
2022-11-05T15:05:37.121Z,46.54
2022-11-05T15:08:44.535Z,46.56
2022-11-05T15:11:20.618Z,46.61
2022-11-05T15:14:17.501Z,46.59
2022-11-05T15:16:49.684Z,47.08
2022-11-05T15:19:21.936Z,46.94
2022-11-05T15:21:50.911Z,47.24
2022-11-05T15:24:28.790Z,47.23
2022-11-05T15:27:22.971Z,47.47
2022-11-05T15:29:50.215Z,47.60
2022-11-05T15:32:19.488Z,47.74
2022-11-05T15:34:55.279Z,47.90
2022-11-05T15:37:26.130Z,47.62
2022-11-05T15:39:55.920Z,47.78
2022-11-05T15:42:28.791Z,48.02
2022-11-05T15:44:58.018Z,48.78
2022-11-05T15:47:30.272Z,48.67
2022-11-05T15:50:23.196Z,49.41
2022-11-05T15:52:52.426Z,49.83
2022-11-05T15:55:25.213Z,50.19
2022-11-05T15:58:07.134Z,50.61
2022-11-05T16:00:36.736Z,50.71
2022-11-05T16:03:39.179Z,50.57
2022-11-05T16:06:09.653Z,51.01
2022-11-05T16:08:36.788Z,52.19
2022-11-05T16:11:04.363Z,53.28
2022-11-05T16:13:42.098Z,53.82
2022-11-05T16:16:35.517Z,54.76
2022-11-05T16:19:22.352Z,54.87
2022-11-05T16:21:55.702Z,55.25
2022-11-05T16:24:29.076Z,55.20
2022-11-05T16:27:03.019Z,55.48
2022-11-05T16:29:36.625Z,55.39
2022-11-05T16:32:14.738Z,55.73
2022-11-05T16:34:46.655Z,55.73
2022-11-05T16:37:17.964Z,55.65
2022-11-05T16:39:45.529Z,55.99
2022-11-05T16:42:48.473Z,56.25
2022-11-05T16:45:16.931Z,56.62
2022-11-05T16:47:44.862Z,56.63
2022-11-05T16:50:41.104Z,56.71
2022-11-05T16:53:08.218Z,56.59
2022-11-05T16:55:37.889Z,56.45
2022-11-05T16:58:05.215Z,56.45
2022-11-05T17:00:32.405Z,56.41
2022-11-05T17:02:59.450Z,56.14
2022-11-05T17:05:29.499Z,56.51
2022-11-05T17:07:57.422Z,56.67
2022-11-05T17:10:26.000Z,57.18
2022-11-05T17:12:53.682Z,58.07
2022-11-05T17:15:25.069Z,58.22
2022-11-05T17:17:53.540Z,58.46
2022-11-05T17:20:51.776Z,58.73
2022-11-05T17:23:20.945Z,58.88
2022-11-05T17:25:51.168Z,58.87
2022-11-05T17:28:19.015Z,58.53
2022-11-05T17:30:52.233Z,58.80
2022-11-05T17:33:20.867Z,58.65
2022-11-05T17:35:48.426Z,59.04
2022-11-05T17:38:15.513Z,59.33
2022-11-05T17:40:42.459Z,59.07
2022-11-05T17:43:10.239Z,58.86
2022-11-05T17:45:46.143Z,58.92
2022-11-05T17:48:14.218Z,58.87
2022-11-05T17:50:51.720Z,60.04
2022-11-05T17:53:19.614Z,60.73
2022-11-05T17:55:47.634Z,61.92
2022-11-05T17:58:14.768Z,61.78
2022-11-05T18:00:42.932Z,62.18
2022-11-05T18:03:11.156Z,60.78
2022-11-05T18:05:40.172Z,60.60
2022-11-05T18:08:07.882Z,61.11
2022-11-05T18:10:39.003Z,61.62
2022-11-05T18:13:06.121Z,61.91
2022-11-05T18:15:33.421Z,62.02
2022-11-05T18:18:00.380Z,61.79
2022-11-05T18:20:27.592Z,62.13
2022-11-05T18:22:54.633Z,62.16
2022-11-05T18:25:21.908Z,62.35
2022-11-05T18:27:48.902Z,62.69
2022-11-05T18:30:16.102Z,63.26
2022-11-05T18:32:44.966Z,62.90
2022-11-05T18:35:13.554Z,62.75
2022-11-05T18:37:40.907Z,63.24
2022-11-05T18:40:08.803Z,63.35
2022-11-05T18:42:36.000Z,63.49
2022-11-05T18:45:04.409Z,63.30
2022-11-05T18:47:32.704Z,63.33
2022-11-05T18:50:00.535Z,63.43
2022-11-05T18:52:28.846Z,63.42
2022-11-05T18:54:55.967Z,63.29
2022-11-05T18:57:23.150Z,63.12
2022-11-05T18:59:50.200Z,63.38
2022-11-05T19:02:17.490Z,63.53
2022-11-05T19:05:00.700Z,63.93
2022-11-05T19:07:32.529Z,64.35
2022-11-05T19:09:59.668Z,64.34
2022-11-05T19:12:26.661Z,64.25
2022-11-05T19:14:57.959Z,64.35
2022-11-05T19:17:28.071Z,64.11
2022-11-05T19:19:55.685Z,64.25
2022-11-05T19:22:22.794Z,64.46
2022-11-05T19:24:49.826Z,64.61
2022-11-05T19:27:17.079Z,64.95
2022-11-05T19:29:44.029Z,64.68
2022-11-05T19:32:11.217Z,64.90
2022-11-05T19:34:38.181Z,65.07
2022-11-05T19:37:08.198Z,65.45
2022-11-05T19:39:35.994Z,65.95
2022-11-05T19:42:03.779Z,66.12
2022-11-05T19:44:31.314Z,66.27
2022-11-05T19:46:58.577Z,65.97
2022-11-05T19:49:28.250Z,66.35
2022-11-05T19:51:55.902Z,66.58
2022-11-05T19:54:23.051Z,66.85
2022-11-05T19:56:52.034Z,67.71
2022-11-05T19:59:19.565Z,67.95
2022-11-05T20:01:46.881Z,67.25
2022-11-05T20:04:14.203Z,67.28
2022-11-05T20:06:41.318Z,68.34
2022-11-05T20:09:27.459Z,69.08
2022-11-05T20:11:56.632Z,68.99
2022-11-05T20:14:25.266Z,68.64
2022-11-05T20:16:53.235Z,68.76
2022-11-05T20:19:22.264Z,68.60
2022-11-05T20:21:49.395Z,68.71
2022-11-05T20:24:24.311Z,69.05
2022-11-05T20:26:54.075Z,68.87
2022-11-05T20:29:22.268Z,68.85
2022-11-05T20:31:50.296Z,68.68
2022-11-05T20:34:17.369Z,69.02
2022-11-05T20:36:44.475Z,69.03
2022-11-05T20:39:12.209Z,69.05
2022-11-05T20:41:39.343Z,68.95
2022-11-05T20:44:06.443Z,69.21
2022-11-05T20:46:33.479Z,69.20
2022-11-05T20:49:00.488Z,69.50
2022-11-05T20:51:27.478Z,69.69
2022-11-05T20:53:59.962Z,69.71
2022-11-05T20:56:37.368Z,69.68
2022-11-05T20:59:05.690Z,69.27
2022-11-05T21:01:34.064Z,69.52
2022-11-05T21:04:01.982Z,69.56
2022-11-05T21:06:29.096Z,70.01
2022-11-05T21:08:56.515Z,70.03
2022-11-05T21:11:24.108Z,70.18
2022-11-05T21:13:51.131Z,70.53
2022-11-05T21:16:19.746Z,70.64
2022-11-05T21:18:47.689Z,70.79
2022-11-05T21:21:17.998Z,71.16
2022-11-05T21:23:45.041Z,71.46
2022-11-05T21:26:14.894Z,71.13
2022-11-05T21:28:41.944Z,71.42
2022-11-05T21:31:09.570Z,71.39
2022-11-05T21:33:36.974Z,71.68
2022-11-05T21:36:09.132Z,71.96
2022-11-05T21:38:36.414Z,71.93
2022-11-05T21:41:04.759Z,72.03
2022-11-05T21:43:32.035Z,71.97
2022-11-05T21:46:04.507Z,71.66
2022-11-05T21:48:32.387Z,71.69
2022-11-05T21:51:17.947Z,71.66
2022-11-05T21:54:03.379Z,71.17
2022-11-05T21:56:50.017Z,72.25
2022-11-05T21:59:38.582Z,72.57
2022-11-05T22:02:07.752Z,73.05
2022-11-05T22:04:37.579Z,72.84
2022-11-05T22:07:05.723Z,72.66
2022-11-05T22:09:33.002Z,72.40
2022-11-05T22:12:01.195Z,72.54
2022-11-05T22:14:28.363Z,72.33
2022-11-05T22:16:55.600Z,72.22
2022-11-05T22:19:23.536Z,71.93
2022-11-05T22:21:50.781Z,71.62
2022-11-05T22:24:18.357Z,71.74
2022-11-05T22:26:45.955Z,71.06
2022-11-05T22:29:13.380Z,70.62
2022-11-05T22:31:40.587Z,71.10
2022-11-05T22:34:09.756Z,71.64
2022-11-05T22:36:36.740Z,71.93
2022-11-05T22:39:05.339Z,72.14
2022-11-05T22:41:32.487Z,72.02
2022-11-05T22:43:59.486Z,72.23
2022-11-05T22:46:27.597Z,72.03
2022-11-05T22:48:56.366Z,71.92
2022-11-05T22:51:29.923Z,71.56
2022-11-05T22:53:57.935Z,72.00
2022-11-05T22:56:27.779Z,71.64
2022-11-05T22:58:55.199Z,71.38
2022-11-05T23:01:23.436Z,71.51
2022-11-05T23:03:52.775Z,71.73
2022-11-05T23:06:49.667Z,72.05
2022-11-05T23:09:37.864Z,72.85
2022-11-05T23:12:09.074Z,73.05
2022-11-05T23:14:36.896Z,72.89
2022-11-05T23:17:22.723Z,72.50
2022-11-05T23:20:08.311Z,72.56
2022-11-05T23:22:53.706Z,71.80
2022-11-05T23:25:23.316Z,72.38
2022-11-05T23:27:52.065Z,72.90
2022-11-05T23:30:24.934Z,72.90
2022-11-05T23:32:53.264Z,73.68
2022-11-05T23:35:43.238Z,72.89
2022-11-05T23:38:29.075Z,72.98
2022-11-05T23:41:21.771Z,72.86
2022-11-05T23:44:07.244Z,72.04
2022-11-05T23:46:52.913Z,72.91
2022-11-05T23:49:20.172Z,73.55
2022-11-05T23:51:47.231Z,74.29
2022-11-05T23:54:14.138Z,74.63
2022-11-05T23:56:41.127Z,75.15
2022-11-05T23:59:08.304Z,75.68
